createdAt,value
2022-10-21T00:01:43.467Z,15.30
2022-10-21T00:04:29.072Z,15.30
2022-10-21T00:07:14.555Z,15.40
2022-10-21T00:10:00.238Z,15.30
2022-10-21T00:12:45.532Z,15.20
2022-10-21T00:15:31.038Z,15.20
2022-10-21T00:18:16.580Z,15.30
2022-10-21T00:21:06.130Z,15.30
2022-10-21T00:23:51.679Z,15.30
2022-10-21T00:26:38.630Z,15.30
2022-10-21T00:29:24.414Z,15.40
2022-10-21T00:32:10.267Z,15.40
2022-10-21T00:34:55.737Z,15.40
2022-10-21T00:37:41.847Z,15.40
2022-10-21T00:40:27.671Z,15.50
2022-10-21T00:43:13.551Z,15.50
2022-10-21T00:46:05.769Z,15.50
2022-10-21T00:48:57.771Z,15.60
2022-10-21T00:51:45.958Z,15.60
2022-10-21T00:54:32.623Z,15.50
2022-10-21T00:57:20.175Z,15.40
2022-10-21T01:00:07.089Z,15.20
2022-10-21T01:02:53.023Z,15.30
2022-10-21T01:05:40.931Z,15.30
2022-10-21T01:08:27.793Z,15.30
2022-10-21T01:11:17.807Z,15.30
2022-10-21T01:14:24.530Z,15.20
2022-10-21T01:17:44.521Z,15.40
2022-10-21T01:20:48.682Z,15.50
2022-10-21T01:23:56.303Z,15.60
2022-10-21T01:27:06.781Z,15.50
2022-10-21T01:30:01.168Z,15.40
2022-10-21T01:32:58.145Z,15.40
2022-10-21T01:36:20.068Z,15.40
2022-10-21T01:39:16.874Z,15.50
2022-10-21T01:42:30.191Z,15.50
2022-10-21T01:45:37.345Z,15.60
2022-10-21T01:48:28.187Z,15.70
2022-10-21T01:51:14.454Z,15.80
2022-10-21T01:54:09.748Z,15.70
2022-10-21T01:56:57.580Z,15.60
2022-10-21T01:59:44.776Z,15.60
2022-10-21T02:02:34.059Z,15.50
2022-10-21T02:05:23.017Z,15.50
2022-10-21T02:08:09.117Z,15.60
2022-10-21T02:10:58.382Z,15.50
2022-10-21T02:13:53.422Z,15.50
2022-10-21T02:16:40.226Z,15.60
2022-10-21T02:19:26.820Z,15.70
2022-10-21T02:22:16.700Z,15.80
2022-10-21T02:25:09.719Z,15.90
2022-10-21T02:27:55.906Z,16.00
2022-10-21T02:30:54.222Z,16.00
2022-10-21T02:33:51.963Z,16.00
2022-10-21T02:36:56.285Z,16.10
2022-10-21T02:39:53.342Z,16.10
2022-10-21T02:42:44.647Z,16.10
2022-10-21T02:45:30.694Z,16.20
2022-10-21T02:48:17.965Z,16.10
2022-10-21T02:51:05.746Z,16.00
2022-10-21T02:53:51.910Z,15.90
2022-10-21T02:56:37.758Z,15.80
2022-10-21T02:59:23.508Z,15.70
2022-10-21T03:02:09.352Z,15.70
2022-10-21T03:04:55.117Z,15.60
2022-10-21T03:07:41.606Z,15.70
2022-10-21T03:10:27.610Z,15.80
2022-10-21T03:13:13.697Z,15.90
2022-10-21T03:15:59.415Z,16.00
2022-10-21T03:18:45.275Z,16.10
2022-10-21T03:21:30.695Z,16.10
2022-10-21T03:24:28.105Z,16.20
2022-10-21T03:27:14.552Z,16.30
2022-10-21T03:30:00.344Z,16.30
2022-10-21T03:32:46.528Z,16.30
2022-10-21T03:35:32.383Z,16.30
2022-10-21T03:38:18.889Z,16.40
2022-10-21T03:41:04.516Z,16.30
2022-10-21T03:43:50.243Z,16.40
2022-10-21T03:46:36.416Z,16.40
2022-10-21T03:49:22.813Z,18.00
2022-10-21T03:52:08.404Z,16.40
2022-10-21T03:54:53.735Z,16.50
2022-10-21T03:57:41.292Z,16.50
2022-10-21T04:00:29.543Z,16.40
2022-10-21T04:03:17.159Z,16.40
2022-10-21T04:06:02.686Z,16.40
2022-10-21T04:08:48.380Z,16.40
2022-10-21T04:11:34.153Z,16.40
2022-10-21T04:14:20.034Z,16.40
2022-10-21T04:17:07.558Z,16.30
2022-10-21T04:19:53.400Z,16.30
2022-10-21T04:22:39.544Z,16.30
2022-10-21T04:25:26.008Z,16.30
2022-10-21T04:28:13.093Z,16.30
2022-10-21T04:30:58.613Z,16.30
2022-10-21T04:33:45.567Z,16.30
2022-10-21T04:36:32.168Z,16.30
2022-10-21T04:39:18.082Z,16.10
2022-10-21T04:42:03.844Z,16.10
2022-10-21T04:44:49.143Z,16.10
2022-10-21T04:47:35.203Z,16.10
2022-10-21T04:50:20.933Z,16.20
2022-10-21T04:53:06.683Z,16.20
2022-10-21T04:55:53.644Z,16.30
2022-10-21T04:58:39.431Z,16.30
2022-10-21T05:01:26.011Z,16.30
2022-10-21T05:04:13.166Z,16.40
2022-10-21T05:06:59.035Z,16.30
2022-10-21T05:09:44.905Z,16.30
2022-10-21T05:12:31.652Z,16.30
2022-10-21T05:15:17.681Z,16.20
2022-10-21T05:18:03.371Z,16.30
2022-10-21T05:20:52.456Z,16.30
2022-10-21T05:23:38.423Z,16.40
2022-10-21T05:26:24.341Z,16.50
2022-10-21T05:29:10.776Z,16.40
2022-10-21T05:31:56.628Z,16.40
2022-10-21T05:34:42.287Z,16.50
2022-10-21T05:37:27.875Z,16.60
2022-10-21T05:40:14.231Z,16.50
2022-10-21T05:42:59.493Z,16.60
2022-10-21T05:45:44.949Z,16.60
2022-10-21T05:48:30.630Z,16.50
2022-10-21T05:51:18.163Z,16.50
2022-10-21T05:54:06.118Z,16.40
2022-10-21T05:56:55.225Z,16.30
2022-10-21T05:59:40.869Z,16.20
2022-10-21T06:02:27.126Z,16.10
2022-10-21T06:05:12.831Z,16.10
2022-10-21T06:07:58.460Z,18.30
2022-10-21T06:10:44.915Z,16.20
2022-10-21T06:13:31.536Z,16.30
2022-10-21T06:16:17.250Z,16.30
2022-10-21T06:19:03.760Z,16.40
2022-10-21T06:21:49.842Z,16.40
2022-10-21T06:24:36.220Z,16.40
2022-10-21T06:27:22.063Z,16.40
2022-10-21T06:30:08.926Z,16.40
2022-10-21T06:32:55.286Z,16.40
2022-10-21T06:35:40.724Z,16.30
2022-10-21T06:38:26.415Z,16.20
2022-10-21T06:41:15.885Z,16.30
2022-10-21T06:44:02.265Z,16.30
2022-10-21T06:46:48.163Z,16.40
2022-10-21T06:49:34.729Z,16.40
2022-10-21T06:52:21.113Z,16.40
2022-10-21T06:55:07.855Z,16.40
2022-10-21T06:57:53.365Z,16.40
2022-10-21T07:00:39.085Z,16.40
2022-10-21T07:03:24.782Z,16.40
2022-10-21T07:06:12.582Z,16.40
2022-10-21T07:08:59.007Z,16.30
2022-10-21T07:11:45.003Z,16.30
2022-10-21T07:14:30.830Z,16.30
2022-10-21T07:17:17.356Z,16.20
2022-10-21T07:20:03.347Z,16.30
2022-10-21T07:22:49.172Z,16.30
2022-10-21T07:25:36.039Z,16.20
2022-10-21T07:28:21.946Z,16.20
2022-10-21T07:31:07.755Z,16.30
2022-10-21T07:33:54.453Z,16.40
2022-10-21T07:36:43.387Z,16.50
2022-10-21T07:39:29.029Z,16.50
2022-10-21T07:42:14.540Z,16.40
2022-10-21T07:45:01.652Z,16.50
2022-10-21T07:47:47.728Z,16.50
2022-10-21T07:50:33.854Z,16.40
2022-10-21T07:53:20.522Z,16.20
2022-10-21T07:56:13.677Z,16.10
2022-10-21T07:59:01.518Z,16.20
2022-10-21T08:04:39.396Z,16.40
2022-10-21T08:07:25.548Z,16.40
2022-10-21T08:10:11.077Z,16.50
2022-10-21T08:12:56.570Z,16.60
2022-10-21T08:15:46.487Z,16.60
2022-10-21T08:18:32.028Z,16.70
2022-10-21T08:21:17.883Z,16.70
2022-10-21T08:24:04.071Z,16.70
2022-10-21T08:26:50.907Z,16.80
2022-10-21T08:29:39.176Z,16.80
2022-10-21T08:32:25.582Z,16.80
2022-10-21T08:35:11.235Z,16.80
2022-10-21T08:37:57.172Z,16.80
2022-10-21T08:40:50.998Z,16.80
2022-10-21T08:43:39.849Z,16.70
2022-10-21T08:46:31.866Z,16.60
2022-10-21T08:49:29.976Z,16.80
2022-10-21T08:52:23.764Z,16.70
2022-10-21T08:55:34.879Z,16.80
2022-10-21T08:58:23.749Z,16.90
2022-10-21T09:01:21.288Z,16.90
2022-10-21T09:04:57.404Z,17.00
2022-10-21T09:07:59.745Z,17.00
2022-10-21T09:10:56.444Z,17.10
2022-10-21T09:13:51.423Z,17.10
2022-10-21T09:17:07.714Z,17.00
2022-10-21T09:19:59.326Z,16.90
2022-10-21T09:23:11.076Z,16.80
2022-10-21T09:26:02.836Z,16.80
2022-10-21T09:28:48.819Z,16.90
2022-10-21T09:31:34.250Z,16.90
2022-10-21T09:34:47.420Z,16.90
2022-10-21T09:37:42.036Z,16.90
2022-10-21T09:40:30.895Z,16.80
2022-10-21T09:43:25.946Z,16.90
2022-10-21T09:46:16.688Z,16.90
2022-10-21T09:52:07.835Z,17.00
2022-10-21T09:54:53.918Z,17.00
2022-10-21T09:57:55.761Z,16.90
2022-10-21T10:00:44.535Z,16.80
2022-10-21T10:03:31.455Z,16.90
2022-10-21T10:06:33.827Z,16.90
2022-10-21T10:09:36.990Z,16.80
2022-10-21T10:12:25.615Z,16.80
2022-10-21T10:15:35.471Z,16.90
2022-10-21T10:18:22.391Z,16.80
2022-10-21T10:21:14.249Z,16.90
2022-10-21T10:24:03.433Z,16.90
2022-10-21T10:26:49.658Z,17.00
2022-10-21T10:29:37.330Z,17.00
2022-10-21T10:32:26.596Z,17.10
2022-10-21T10:35:21.921Z,17.20
2022-10-21T10:38:16.529Z,17.20
2022-10-21T10:41:09.936Z,17.30
2022-10-21T10:43:56.260Z,17.30
2022-10-21T10:46:42.900Z,17.30
2022-10-21T10:49:39.665Z,17.10
2022-10-21T10:52:25.499Z,17.00
2022-10-21T10:55:11.101Z,17.00
2022-10-21T10:58:14.400Z,17.10
2022-10-21T11:01:09.042Z,17.10
2022-10-21T11:04:41.329Z,17.20
2022-10-21T11:07:45.234Z,17.30
2022-10-21T11:10:36.780Z,17.40
2022-10-21T11:13:24.363Z,17.40
2022-10-21T11:16:22.240Z,17.50
2022-10-21T11:19:19.122Z,17.40
2022-10-21T11:22:29.383Z,17.40
2022-10-21T11:25:40.689Z,17.40
2022-10-21T11:28:41.710Z,17.40
2022-10-21T11:32:11.238Z,17.40
2022-10-21T11:34:57.298Z,17.40
2022-10-21T11:37:52.871Z,17.40
2022-10-21T11:40:48.452Z,17.40
2022-10-21T11:43:34.007Z,17.40
2022-10-21T11:46:40.133Z,17.40
2022-10-21T11:49:57.786Z,17.30
2022-10-21T11:52:46.028Z,19.50
2022-10-21T11:55:50.639Z,17.30
2022-10-21T11:58:49.542Z,17.30
2022-10-21T12:01:40.771Z,17.30
2022-10-21T12:04:39.526Z,17.30
2022-10-21T12:07:37.518Z,17.30
2022-10-21T12:10:37.592Z,17.30
2022-10-21T12:13:31.646Z,17.30
2022-10-21T12:16:23.123Z,17.30
2022-10-21T12:19:13.203Z,17.30
2022-10-21T12:21:59.213Z,17.20
2022-10-21T12:25:13.141Z,17.30
2022-10-21T12:28:19.179Z,17.30
2022-10-21T12:31:20.670Z,17.20
2022-10-21T12:34:09.448Z,17.20
2022-10-21T12:39:48.269Z,17.00
2022-10-21T12:42:34.182Z,16.90
2022-10-21T12:45:40.293Z,16.90
2022-10-21T12:48:40.074Z,16.90
2022-10-21T12:51:32.081Z,16.90
2022-10-21T12:54:24.290Z,16.80
2022-10-21T12:57:31.928Z,16.80
2022-10-21T13:00:29.752Z,16.80
2022-10-21T13:03:42.528Z,16.70
2022-10-21T13:07:09.955Z,16.80
2022-10-21T13:09:55.433Z,16.70
2022-10-21T13:12:42.172Z,16.70
2022-10-21T13:15:31.047Z,16.70
2022-10-21T13:18:51.485Z,16.70
2022-10-21T13:21:44.168Z,16.80
2022-10-21T13:24:34.363Z,16.80
2022-10-21T13:27:38.555Z,16.90
2022-10-21T13:30:27.211Z,17.00
2022-10-21T13:33:20.427Z,17.00
2022-10-21T13:36:12.055Z,17.00
2022-10-21T13:39:02.516Z,16.90
2022-10-21T13:42:01.000Z,16.90
2022-10-21T13:45:02.330Z,16.80
2022-10-21T13:47:59.875Z,16.80
2022-10-21T13:50:51.019Z,16.90
2022-10-21T13:53:45.541Z,16.90
2022-10-21T13:56:36.935Z,17.00
2022-10-21T13:59:33.820Z,16.80
2022-10-21T14:02:24.914Z,16.90
2022-10-21T14:05:31.096Z,16.90
2022-10-21T14:08:31.919Z,16.90
2022-10-21T14:11:33.455Z,17.00
2022-10-21T14:14:24.349Z,17.10
2022-10-21T14:17:17.959Z,17.10
2022-10-21T14:20:12.611Z,17.10
2022-10-21T14:22:57.988Z,17.20
2022-10-21T14:25:43.517Z,17.10
2022-10-21T14:28:29.207Z,17.10
2022-10-21T14:31:14.947Z,17.10
2022-10-21T14:34:00.885Z,17.20
2022-10-21T14:37:09.331Z,17.10
2022-10-21T14:40:24.185Z,17.00
2022-10-21T14:43:12.441Z,17.00
2022-10-21T14:45:58.144Z,17.00
2022-10-21T14:48:59.830Z,17.00
2022-10-21T14:51:45.754Z,16.90
2022-10-21T14:54:42.976Z,16.90
2022-10-21T14:57:47.500Z,17.00
2022-10-21T15:00:40.367Z,17.00
2022-10-21T15:03:42.722Z,16.90
2022-10-21T15:06:36.492Z,16.90
2022-10-21T15:09:23.450Z,16.90
2022-10-21T15:12:38.847Z,16.90
2022-10-21T15:15:40.323Z,16.90
2022-10-21T15:18:41.356Z,16.90
2022-10-21T15:21:31.195Z,16.90
2022-10-21T15:24:20.084Z,16.90
2022-10-21T15:27:06.151Z,16.90
2022-10-21T15:29:52.443Z,16.80
2022-10-21T15:32:38.278Z,16.80
2022-10-21T15:35:23.947Z,16.70
2022-10-21T15:38:09.418Z,16.70
2022-10-21T15:40:55.046Z,16.70
2022-10-21T15:43:42.177Z,16.60
2022-10-21T15:46:30.183Z,16.70
2022-10-21T15:49:21.991Z,16.70
2022-10-21T15:52:07.804Z,16.70
2022-10-21T15:54:54.805Z,16.60
2022-10-21T15:57:42.631Z,16.70
2022-10-21T16:00:28.823Z,16.70
2022-10-21T16:03:14.956Z,16.70
2022-10-21T16:06:00.888Z,16.70
2022-10-21T16:08:47.620Z,16.70
2022-10-21T16:11:41.246Z,16.70
2022-10-21T16:14:33.379Z,16.70
2022-10-21T16:17:23.742Z,16.60
2022-10-21T16:20:19.182Z,16.60
2022-10-21T16:23:04.863Z,16.60
2022-10-21T16:25:50.864Z,16.50
2022-10-21T16:28:36.758Z,16.50
2022-10-21T16:31:22.387Z,16.50
2022-10-21T16:34:08.778Z,16.40
2022-10-21T16:36:55.027Z,16.40
2022-10-21T16:39:41.258Z,16.40
2022-10-21T16:42:27.049Z,16.30
2022-10-21T16:45:15.355Z,16.30
2022-10-21T16:48:04.326Z,16.30
2022-10-21T16:50:51.020Z,16.20
2022-10-21T16:53:36.961Z,16.20
2022-10-21T16:56:22.994Z,16.20
2022-10-21T16:59:08.664Z,16.30
2022-10-21T17:02:04.412Z,16.20
2022-10-21T17:04:54.819Z,16.30
2022-10-21T17:07:41.988Z,16.30
2022-10-21T17:10:28.232Z,16.20
2022-10-21T17:13:15.643Z,16.20
2022-10-21T17:16:01.667Z,16.10
2022-10-21T17:18:48.287Z,16.00
2022-10-21T17:21:34.596Z,15.90
2022-10-21T17:24:20.537Z,15.90
2022-10-21T17:27:06.797Z,15.90
2022-10-21T17:29:54.007Z,15.90
2022-10-21T17:32:40.160Z,15.90
2022-10-21T17:35:25.638Z,15.90
2022-10-21T17:38:11.237Z,15.90
2022-10-21T17:40:57.524Z,15.70
2022-10-21T17:43:44.258Z,15.70
2022-10-21T17:46:30.342Z,15.60
2022-10-21T17:49:16.302Z,15.40
2022-10-21T17:52:01.791Z,15.40
2022-10-21T17:54:47.527Z,15.40
2022-10-21T17:57:33.693Z,15.30
2022-10-21T18:00:19.940Z,15.30
2022-10-21T18:03:05.601Z,15.40
2022-10-21T18:05:52.417Z,15.40
2022-10-21T18:08:38.339Z,15.40
2022-10-21T18:11:24.031Z,15.50
2022-10-21T18:14:09.436Z,15.50
2022-10-21T18:16:55.090Z,15.50
2022-10-21T18:19:40.847Z,15.50
2022-10-21T18:22:26.794Z,15.50
2022-10-21T18:25:12.177Z,15.50
2022-10-21T18:27:58.162Z,15.50
2022-10-21T18:30:44.062Z,15.50
2022-10-21T18:33:29.924Z,15.50
2022-10-21T18:36:17.397Z,15.50
2022-10-21T18:39:02.739Z,15.40
2022-10-21T18:41:48.255Z,15.40
2022-10-21T18:44:33.992Z,15.50
2022-10-21T18:47:20.431Z,15.50
2022-10-21T18:50:08.587Z,15.50
2022-10-21T18:52:54.175Z,15.60
2022-10-21T18:55:40.428Z,15.50
2022-10-21T18:58:26.189Z,15.50
2022-10-21T19:01:14.918Z,15.50
2022-10-21T19:04:01.330Z,15.50
2022-10-21T19:06:47.209Z,15.50
2022-10-21T19:09:33.091Z,15.50
2022-10-21T19:12:23.180Z,15.50
2022-10-21T19:15:09.784Z,15.60
2022-10-21T19:17:56.221Z,15.80
2022-10-21T19:20:41.723Z,15.80
2022-10-21T19:23:27.925Z,15.80
2022-10-21T19:26:14.931Z,15.80
2022-10-21T19:29:03.404Z,15.80
2022-10-21T19:31:49.276Z,15.70
2022-10-21T19:34:35.240Z,15.80
2022-10-21T19:37:20.900Z,15.90
2022-10-21T19:40:07.044Z,15.90
2022-10-21T19:42:52.520Z,15.80
2022-10-21T19:45:38.020Z,15.60
2022-10-21T19:48:23.668Z,15.60
2022-10-21T19:51:15.128Z,15.60
2022-10-21T19:54:04.843Z,15.60
2022-10-21T19:56:51.906Z,15.60
2022-10-21T19:59:37.683Z,15.70
2022-10-21T20:02:23.294Z,15.70
2022-10-21T20:05:10.105Z,15.70
2022-10-21T20:07:56.584Z,15.70
2022-10-21T20:10:42.431Z,15.80
2022-10-21T20:13:28.369Z,15.80
2022-10-21T20:16:16.527Z,15.80
2022-10-21T20:19:04.221Z,15.80
2022-10-21T20:21:50.718Z,15.90
2022-10-21T20:24:36.433Z,15.90
2022-10-21T20:27:22.079Z,15.90
2022-10-21T20:30:08.346Z,15.90
2022-10-21T20:32:54.411Z,15.90
2022-10-21T20:35:42.074Z,15.90
2022-10-21T20:38:27.886Z,15.90
2022-10-21T20:41:17.382Z,15.70
2022-10-21T20:44:04.369Z,15.40
2022-10-21T20:46:50.057Z,15.20
2022-10-21T20:49:35.531Z,15.10
2022-10-21T20:52:21.147Z,15.00
2022-10-21T20:55:06.814Z,15.10
2022-10-21T20:57:52.383Z,15.20
2022-10-21T21:00:37.760Z,15.40
2022-10-21T21:03:23.395Z,15.50
2022-10-21T21:06:10.246Z,15.50
2022-10-21T21:09:28.900Z,15.60
2022-10-21T21:12:03.701Z,15.60
2022-10-21T21:14:49.890Z,15.70
2022-10-21T21:17:35.358Z,15.70
2022-10-21T21:20:20.773Z,15.70
2022-10-21T21:23:06.417Z,15.70
2022-10-21T21:25:51.849Z,15.40
2022-10-21T21:28:38.252Z,15.30
2022-10-21T21:31:26.045Z,15.20
2022-10-21T21:34:12.067Z,15.30
2022-10-21T21:36:57.783Z,15.40
2022-10-21T21:39:43.245Z,15.50
2022-10-21T21:42:28.785Z,15.50
2022-10-21T21:45:15.060Z,15.60
2022-10-21T21:48:00.501Z,15.60
2022-10-21T21:50:46.406Z,15.60
2022-10-21T21:53:32.300Z,15.50
2022-10-21T21:56:19.717Z,15.40
2022-10-21T21:59:05.648Z,15.20
2022-10-21T22:01:51.269Z,14.90
2022-10-21T22:04:39.213Z,14.80
2022-10-21T22:07:24.595Z,14.80
2022-10-21T22:10:10.778Z,14.80
2022-10-21T22:12:56.589Z,14.70
2022-10-21T22:15:48.130Z,14.80
2022-10-21T22:18:34.219Z,14.80
2022-10-21T22:21:19.955Z,14.90
2022-10-21T22:24:05.946Z,15.10
2022-10-21T22:26:51.933Z,15.10
2022-10-21T22:29:37.466Z,15.00
2022-10-21T22:32:23.027Z,15.10
2022-10-21T22:35:09.479Z,15.10
2022-10-21T22:37:54.960Z,15.10
2022-10-21T22:40:40.503Z,15.20
2022-10-21T22:43:27.349Z,15.20
2022-10-21T22:49:18.232Z,15.20
2022-10-21T22:52:03.816Z,15.20
2022-10-21T22:54:50.084Z,15.20
2022-10-21T22:57:36.059Z,15.20
2022-10-21T23:00:21.565Z,15.20
2022-10-21T23:03:09.665Z,15.20
2022-10-21T23:05:55.439Z,15.20
2022-10-21T23:08:41.099Z,15.20
2022-10-21T23:11:27.242Z,15.20
2022-10-21T23:14:13.073Z,15.20
2022-10-21T23:16:58.393Z,15.10
2022-10-21T23:19:44.021Z,15.00
2022-10-21T23:22:29.519Z,14.80
2022-10-21T23:25:15.997Z,14.70
2022-10-21T23:28:01.466Z,14.70
2022-10-21T23:30:47.911Z,14.80
2022-10-21T23:33:33.527Z,14.90
2022-10-21T23:36:19.148Z,14.90
2022-10-21T23:39:05.062Z,15.00
2022-10-21T23:41:50.959Z,14.50
2022-10-21T23:44:36.553Z,15.00
2022-10-21T23:47:22.226Z,15.00
2022-10-21T23:50:09.600Z,15.00
2022-10-21T23:52:55.481Z,15.00
2022-10-21T23:55:41.106Z,15.10
2022-10-21T23:58:26.588Z,15.10
